createdAt,value
2019-01-08T00:02:05.618Z,10.00
2019-01-08T00:04:53.380Z,9.70
2019-01-08T00:07:41.133Z,9.70
2019-01-08T00:10:29.205Z,10.00
2019-01-08T00:13:16.972Z,10.30
2019-01-08T00:16:04.750Z,10.00
2019-01-08T00:18:52.508Z,9.30
2019-01-08T00:21:40.254Z,9.90
2019-01-08T00:24:28.084Z,9.70
2019-01-08T00:27:15.836Z,9.40
2019-01-08T00:30:03.922Z,9.90
2019-01-08T00:32:51.978Z,9.80
2019-01-08T00:35:32.884Z,9.80
2019-01-08T00:38:13.358Z,9.40
2019-01-08T00:40:54.025Z,9.40
2019-01-08T00:43:34.762Z,9.10
2019-01-08T00:46:15.761Z,8.90
2019-01-08T00:48:56.526Z,9.30
2019-01-08T00:51:36.986Z,9.50
2019-01-08T00:54:18.113Z,10.00
2019-01-08T00:56:58.781Z,9.20
2019-01-08T00:59:39.365Z,9.40
2019-01-08T01:02:20.177Z,9.30
2019-01-08T01:05:00.955Z,9.50
2019-01-08T01:07:42.193Z,9.50
2019-01-08T01:10:22.749Z,9.70
2019-01-08T01:13:03.181Z,9.30
2019-01-08T01:15:43.787Z,9.10
2019-01-08T01:18:24.501Z,9.60
2019-01-08T01:21:05.350Z,10.00
2019-01-08T01:23:45.824Z,9.70
2019-01-08T01:26:26.749Z,9.50
2019-01-08T01:29:07.901Z,9.40
2019-01-08T01:31:36.328Z,9.30
2019-01-08T01:34:24.100Z,9.20
2019-01-08T01:37:11.832Z,9.50
2019-01-08T01:39:59.603Z,9.20
2019-01-08T01:42:47.351Z,9.20
2019-01-08T01:45:35.104Z,9.30
2019-01-08T01:48:22.845Z,9.30
2019-01-08T01:51:10.617Z,9.00
2019-01-08T01:53:58.416Z,9.20
2019-01-08T01:56:46.244Z,9.60
2019-01-08T01:59:33.983Z,9.40
2019-01-08T02:02:21.744Z,9.20
2019-01-08T02:05:09.516Z,9.00
2019-01-08T02:07:57.281Z,9.80
2019-01-08T02:10:45.019Z,9.60
2019-01-08T02:13:26.241Z,9.60
2019-01-08T02:16:06.786Z,9.60
2019-01-08T02:18:47.398Z,9.20
2019-01-08T02:21:27.838Z,8.90
2019-01-08T02:24:08.598Z,9.50
2019-01-08T02:26:49.241Z,9.60
2019-01-08T02:29:29.996Z,9.00
2019-01-08T02:32:10.791Z,9.60
2019-01-08T02:34:51.614Z,9.60
2019-01-08T02:37:32.410Z,9.00
2019-01-08T02:40:13.092Z,8.80
2019-01-08T02:42:53.511Z,8.80
2019-01-08T02:45:34.677Z,8.90
2019-01-08T02:48:15.202Z,8.80
2019-01-08T02:50:56.298Z,8.90
2019-01-08T02:53:36.729Z,8.70
2019-01-08T02:56:17.514Z,9.70
2019-01-08T02:58:58.143Z,10.40
2019-01-08T03:01:39.229Z,9.80
2019-01-08T03:04:19.662Z,9.00
2019-01-08T03:07:00.353Z,8.90
2019-01-08T03:09:41.072Z,8.60
2019-01-08T03:12:21.841Z,8.70
2019-01-08T03:15:02.213Z,8.60
2019-01-08T03:17:42.865Z,8.50
2019-01-08T03:20:23.403Z,8.80
2019-01-08T03:23:04.232Z,8.40
2019-01-08T03:25:45.325Z,8.40
2019-01-08T03:28:26.413Z,8.50
2019-01-08T03:31:07.074Z,8.30
2019-01-08T03:33:47.648Z,8.00
2019-01-08T03:36:28.807Z,8.20
2019-01-08T03:39:09.783Z,8.80
2019-01-08T03:41:49.995Z,9.10
2019-01-08T03:44:30.775Z,8.80
2019-01-08T03:47:11.816Z,8.60
2019-01-08T03:49:52.209Z,8.60
2019-01-08T03:52:33.122Z,8.80
2019-01-08T03:55:14.073Z,8.80
2019-01-08T03:57:55.016Z,8.90
2019-01-08T04:00:35.704Z,8.80
2019-01-08T04:03:16.520Z,8.50
2019-01-08T04:05:57.337Z,8.40
2019-01-08T04:08:38.060Z,8.60
2019-01-08T04:11:18.809Z,8.70
2019-01-08T04:13:59.242Z,8.30
2019-01-08T04:16:39.893Z,8.50
2019-01-08T04:19:20.627Z,8.50
2019-01-08T04:22:01.044Z,8.60
2019-01-08T04:24:41.833Z,8.50
2019-01-08T04:27:22.633Z,9.20
2019-01-08T04:30:03.709Z,8.70
2019-01-08T04:32:44.460Z,9.00
2019-01-08T04:35:25.760Z,8.70
2019-01-08T04:38:06.179Z,8.60
2019-01-08T04:40:46.925Z,8.50
2019-01-08T04:43:27.487Z,9.50
2019-01-08T04:46:08.314Z,9.00
2019-01-08T04:48:49.136Z,8.70
2019-01-08T04:51:29.952Z,10.60
2019-01-08T04:54:10.827Z,9.60
2019-01-08T04:56:51.649Z,9.50
2019-01-08T04:59:32.444Z,8.90
2019-01-08T05:02:12.927Z,8.80
2019-01-08T05:04:53.645Z,9.60
2019-01-08T05:07:34.649Z,8.80
2019-01-08T05:10:15.573Z,8.70
2019-01-08T05:12:56.291Z,8.30
2019-01-08T05:15:36.706Z,8.50
2019-01-08T05:18:17.624Z,9.10
2019-01-08T05:20:58.286Z,8.90
2019-01-08T05:23:38.903Z,8.90
2019-01-08T05:26:19.820Z,8.60
2019-01-08T05:32:13.852Z,8.10
2019-01-08T05:34:54.369Z,8.90
2019-01-08T05:37:34.815Z,8.80
2019-01-08T05:40:15.697Z,8.70
2019-01-08T05:42:56.727Z,8.60
2019-01-08T05:45:37.264Z,9.00
2019-01-08T05:48:18.152Z,8.60
2019-01-08T05:50:58.936Z,8.20
2019-01-08T05:53:39.511Z,8.50
2019-01-08T05:56:20.250Z,8.80
2019-01-08T05:59:01.217Z,8.70
2019-01-08T06:01:42.281Z,10.00
2019-01-08T06:04:22.756Z,9.10
2019-01-08T06:07:03.488Z,8.80
2019-01-08T06:09:44.126Z,9.20
2019-01-08T06:12:25.069Z,9.70
2019-01-08T06:15:05.438Z,9.60
2019-01-08T06:17:45.774Z,9.40
2019-01-08T06:20:26.528Z,9.70
2019-01-08T06:23:07.349Z,8.90
2019-01-08T06:25:48.385Z,9.10
2019-01-08T06:28:29.153Z,9.00
2019-01-08T06:31:09.938Z,8.70
2019-01-08T06:33:50.824Z,9.00
2019-01-08T06:36:31.633Z,9.20
2019-01-08T06:39:12.321Z,9.50
2019-01-08T06:41:52.913Z,9.30
2019-01-08T06:44:33.746Z,10.30
2019-01-08T06:47:14.458Z,9.80
2019-01-08T06:49:55.362Z,9.30
2019-01-08T06:52:36.097Z,9.40
2019-01-08T06:55:17.133Z,10.40
2019-01-08T06:57:57.938Z,9.60
2019-01-08T07:00:38.930Z,10.10
2019-01-08T07:03:19.418Z,9.30
2019-01-08T07:06:00.549Z,9.80
2019-01-08T07:08:41.550Z,8.90
2019-01-08T07:11:22.165Z,9.40
2019-01-08T07:14:03.332Z,9.00
2019-01-08T07:16:44.220Z,9.30
2019-01-08T07:19:25.252Z,9.50
2019-01-08T07:22:06.153Z,8.50
2019-01-08T07:24:46.749Z,8.50
2019-01-08T07:27:27.625Z,9.50
2019-01-08T07:30:08.405Z,8.80
2019-01-08T07:32:49.332Z,8.80
2019-01-08T07:35:30.189Z,9.50
2019-01-08T07:38:11.209Z,8.90
2019-01-08T07:40:52.351Z,9.30
2019-01-08T07:43:33.577Z,9.90
2019-01-08T07:46:13.963Z,9.50
2019-01-08T07:48:55.041Z,9.60
2019-01-08T07:51:23.481Z,9.20
2019-01-08T07:54:11.233Z,9.20
2019-01-08T07:56:59.055Z,10.30
2019-01-08T07:59:46.819Z,9.20
2019-01-08T08:02:34.563Z,10.80
2019-01-08T08:05:22.714Z,10.60
2019-01-08T08:08:03.005Z,11.40
2019-01-08T08:10:44.131Z,11.10
2019-01-08T08:13:26.945Z,11.60
2019-01-08T08:16:07.910Z,11.30
2019-01-08T08:18:48.496Z,11.30
2019-01-08T08:21:29.494Z,11.40
2019-01-08T08:24:10.157Z,12.10
2019-01-08T08:26:50.885Z,10.80
2019-01-08T08:29:32.217Z,12.10
2019-01-08T08:32:12.825Z,12.30
2019-01-08T08:34:53.980Z,12.20
2019-01-08T08:37:35.037Z,11.50
2019-01-08T08:40:16.024Z,11.30
2019-01-08T08:42:57.050Z,12.50
2019-01-08T08:45:37.887Z,11.80
2019-01-08T08:48:18.807Z,12.50
2019-01-08T08:50:59.864Z,11.90
2019-01-08T08:53:40.278Z,12.80
2019-01-08T08:56:20.916Z,11.70
2019-01-08T08:59:01.843Z,11.80
2019-01-08T09:01:42.844Z,11.60
2019-01-08T09:04:24.193Z,11.90
2019-01-08T09:07:05.389Z,11.40
2019-01-08T09:09:46.221Z,11.50
2019-01-08T09:12:27.216Z,12.10
2019-01-08T09:15:08.054Z,12.60
2019-01-08T09:17:48.974Z,12.60
2019-01-08T09:20:17.381Z,12.60
2019-01-08T09:22:57.965Z,12.20
2019-01-08T09:25:38.781Z,11.80
2019-01-08T09:28:19.500Z,12.60
2019-01-08T09:30:48.252Z,12.10
2019-01-08T09:33:36.005Z,11.70
2019-01-08T09:36:23.765Z,12.60
2019-01-08T09:39:11.545Z,12.30
2019-01-08T09:41:52.720Z,12.70
2019-01-08T09:44:33.994Z,12.40
2019-01-08T09:47:14.644Z,12.40
2019-01-08T09:49:55.763Z,12.40
2019-01-08T09:52:36.286Z,12.70
2019-01-08T09:55:16.754Z,12.80
2019-01-08T09:57:58.092Z,12.40
2019-01-08T10:00:38.852Z,12.00
2019-01-08T10:03:19.738Z,12.60
2019-01-08T10:08:42.752Z,12.60
2019-01-08T10:11:23.482Z,13.30
2019-01-08T10:14:04.192Z,13.00
2019-01-08T10:16:44.753Z,12.70
2019-01-08T10:19:25.674Z,12.90
2019-01-08T10:22:06.560Z,12.60
2019-01-08T10:24:47.493Z,12.70
2019-01-08T10:27:28.437Z,13.10
2019-01-08T10:30:09.170Z,12.50
2019-01-08T10:32:49.718Z,12.40
2019-01-08T10:35:30.381Z,12.60
2019-01-08T10:38:11.381Z,13.10
2019-01-08T10:40:52.071Z,13.20
2019-01-08T10:43:33.249Z,13.40
2019-01-08T10:46:14.392Z,13.30
2019-01-08T10:48:55.096Z,13.10
2019-01-08T10:51:35.876Z,12.90
2019-01-08T10:54:16.946Z,12.90
2019-01-08T10:56:58.039Z,11.90
2019-01-08T10:59:38.794Z,11.60
2019-01-08T11:02:19.573Z,12.10
2019-01-08T11:05:00.525Z,12.10
2019-01-08T11:07:41.285Z,12.50
2019-01-08T11:10:22.273Z,12.90
2019-01-08T11:13:03.136Z,13.20
2019-01-08T11:15:43.834Z,12.80
2019-01-08T11:18:24.533Z,13.10
2019-01-08T11:21:05.317Z,13.20
2019-01-08T11:23:47.865Z,12.80
2019-01-08T11:26:28.280Z,13.10
2019-01-08T11:29:09.162Z,12.00
2019-01-08T11:31:49.938Z,12.80
2019-01-08T11:34:31.088Z,13.00
2019-01-08T11:37:12.146Z,13.10
2019-01-08T11:39:53.350Z,13.10
2019-01-08T11:42:34.320Z,12.70
2019-01-08T11:45:02.748Z,13.10
2019-01-08T11:47:50.875Z,13.20
2019-01-08T11:50:40.277Z,13.10
2019-01-08T11:53:28.128Z,12.90
2019-01-08T11:56:15.924Z,13.20
2019-01-08T11:59:03.679Z,13.10
2019-01-08T12:04:46.179Z,13.30
2019-01-08T12:07:33.941Z,11.90
2019-01-08T12:10:21.677Z,12.50
2019-01-08T12:13:09.445Z,12.80
2019-01-08T12:15:57.200Z,12.80
2019-01-08T12:18:38.105Z,11.90
2019-01-08T12:21:19.110Z,12.00
2019-01-08T12:24:00.005Z,12.50
2019-01-08T12:26:41.172Z,12.60
2019-01-08T12:29:21.666Z,12.60
2019-01-08T12:32:06.373Z,12.50
2019-01-08T12:34:44.968Z,12.60
2019-01-08T12:37:25.833Z,11.90
2019-01-08T12:40:07.049Z,12.00
2019-01-08T12:42:47.852Z,12.80
2019-01-08T12:45:28.796Z,12.70
2019-01-08T12:48:09.501Z,13.40
2019-01-08T12:50:50.324Z,13.60
2019-01-08T12:53:31.264Z,12.70
2019-01-08T12:56:11.933Z,12.90
2019-01-08T12:58:52.799Z,13.10
2019-01-08T13:01:34.776Z,13.00
2019-01-08T13:04:16.120Z,12.50
2019-01-08T13:06:56.442Z,12.00
2019-01-08T13:09:37.001Z,12.10
2019-01-08T13:12:19.084Z,11.70
2019-01-08T13:14:59.339Z,11.50
2019-01-08T13:17:40.593Z,12.00
2019-01-08T13:20:21.721Z,12.80
2019-01-08T13:23:02.397Z,13.00
2019-01-08T13:25:43.387Z,11.90
2019-01-08T13:28:24.128Z,12.10
2019-01-08T13:31:04.530Z,11.50
2019-01-08T13:33:45.577Z,11.70
2019-01-08T13:36:26.585Z,12.30
2019-01-08T13:39:07.510Z,12.00
2019-01-08T13:41:48.258Z,12.00
2019-01-08T13:44:28.736Z,12.00
2019-01-08T13:47:09.357Z,12.20
2019-01-08T13:49:50.100Z,13.30
2019-01-08T13:52:30.477Z,13.60
2019-01-08T13:55:11.301Z,13.40
2019-01-08T13:57:52.580Z,14.00
2019-01-08T14:00:33.553Z,14.00
2019-01-08T14:03:14.189Z,13.80
2019-01-08T14:05:54.911Z,13.90
2019-01-08T14:08:23.315Z,14.00
2019-01-08T14:11:11.136Z,14.10
2019-01-08T14:14:10.839Z,14.10
2019-01-08T14:16:48.705Z,14.10
2019-01-08T14:19:57.457Z,14.20
2019-01-08T14:22:45.225Z,14.10
2019-01-08T14:25:32.992Z,14.20
2019-01-08T14:28:20.829Z,14.10
2019-01-08T14:31:08.593Z,14.00
2019-01-08T14:33:56.336Z,13.80
2019-01-08T14:36:44.161Z,13.50
2019-01-08T14:39:31.938Z,13.10
2019-01-08T14:42:19.784Z,13.20
2019-01-08T14:45:07.630Z,13.10
2019-01-08T14:47:55.381Z,13.60
2019-01-08T14:50:44.727Z,13.50
2019-01-08T14:53:25.454Z,13.60
2019-01-08T14:56:06.083Z,13.60
2019-01-08T14:58:46.760Z,13.60
2019-01-08T15:01:29.084Z,13.70
2019-01-08T15:04:09.782Z,13.80
2019-01-08T15:06:50.765Z,13.90
2019-01-08T15:09:31.591Z,13.80
2019-01-08T15:12:12.698Z,14.00
2019-01-08T15:14:53.451Z,13.80
2019-01-08T15:17:34.521Z,13.40
2019-01-08T15:20:15.164Z,13.80
2019-01-08T15:22:55.883Z,14.00
2019-01-08T15:25:37.242Z,14.00
2019-01-08T15:28:18.367Z,13.90
2019-01-08T15:30:59.454Z,13.90
2019-01-08T15:33:40.704Z,13.50
2019-01-08T15:36:21.096Z,13.40
2019-01-08T15:39:03.327Z,13.60
2019-01-08T15:41:43.764Z,12.70
2019-01-08T15:44:25.174Z,13.30
2019-01-08T15:47:06.196Z,13.20
2019-01-08T15:49:47.135Z,13.30
2019-01-08T15:52:27.705Z,13.00
2019-01-08T15:55:08.246Z,13.50
2019-01-08T15:57:48.593Z,13.60
2019-01-08T16:00:29.928Z,13.40
2019-01-08T16:03:10.598Z,14.00
2019-01-08T16:05:51.409Z,12.90
2019-01-08T16:08:31.961Z,13.20
2019-01-08T16:11:12.837Z,13.10
2019-01-08T16:13:53.343Z,12.30
2019-01-08T16:16:34.005Z,12.10
2019-01-08T16:19:14.976Z,11.80
2019-01-08T16:21:55.150Z,12.60
2019-01-08T16:24:35.748Z,12.40
2019-01-08T16:27:16.569Z,12.10
2019-01-08T16:29:57.158Z,11.60
2019-01-08T16:32:37.875Z,12.00
2019-01-08T16:35:18.947Z,11.90
2019-01-08T16:37:59.831Z,12.50
2019-01-08T16:40:41.159Z,13.10
2019-01-08T16:43:22.055Z,13.00
2019-01-08T16:46:02.471Z,13.40
2019-01-08T16:48:43.185Z,12.90
2019-01-08T16:51:23.757Z,13.30
2019-01-08T16:54:04.601Z,13.70
2019-01-08T16:56:45.367Z,13.20
2019-01-08T16:59:26.031Z,13.60
2019-01-08T17:02:06.591Z,13.90
2019-01-08T17:04:51.611Z,14.00
2019-01-08T17:07:31.963Z,13.30
2019-01-08T17:10:12.542Z,12.70
2019-01-08T17:12:53.476Z,13.10
2019-01-08T17:15:34.700Z,13.20
2019-01-08T17:18:15.378Z,13.30
2019-01-08T17:20:56.270Z,13.50
2019-01-08T17:23:37.273Z,13.50
2019-01-08T17:26:18.046Z,14.00
2019-01-08T17:28:58.859Z,13.90
2019-01-08T17:31:39.637Z,13.90
2019-01-08T17:34:20.053Z,13.30
2019-01-08T17:37:01.060Z,13.60
2019-01-08T17:39:42.310Z,13.40
2019-01-08T17:42:23.027Z,13.70
2019-01-08T17:45:03.467Z,13.60
2019-01-08T17:47:44.437Z,13.30
2019-01-08T17:50:25.540Z,13.70
2019-01-08T17:53:09.576Z,13.20
2019-01-08T17:55:48.479Z,12.30
2019-01-08T17:58:55.589Z,12.90
2019-01-08T18:02:07.484Z,13.00
2019-01-08T18:04:55.233Z,12.80
2019-01-08T18:07:42.998Z,12.80
2019-01-08T18:10:31.005Z,13.50
2019-01-08T18:13:18.760Z,13.10
2019-01-08T18:16:06.566Z,13.80
2019-01-08T18:18:56.335Z,13.40
2019-01-08T18:21:44.259Z,13.60
2019-01-08T18:24:32.039Z,13.60
2019-01-08T18:27:19.842Z,14.00
2019-01-08T18:30:08.063Z,13.80
2019-01-08T18:32:55.880Z,13.90
2019-01-08T18:35:43.708Z,14.20
2019-01-08T18:38:52.257Z,14.10
2019-01-08T18:41:39.989Z,14.10
2019-01-08T18:44:27.937Z,14.00
2019-01-08T18:47:15.750Z,13.60
2019-01-08T18:50:04.013Z,13.70
2019-01-08T18:52:44.261Z,14.00
2019-01-08T18:55:25.149Z,14.10
2019-01-08T18:58:06.281Z,14.10
2019-01-08T19:00:46.524Z,14.00
2019-01-08T19:03:27.524Z,13.50
2019-01-08T19:06:08.466Z,13.40
2019-01-08T19:08:48.885Z,13.80
2019-01-08T19:11:30.369Z,13.60
2019-01-08T19:14:10.890Z,14.10
2019-01-08T19:16:51.971Z,14.00
2019-01-08T19:19:32.837Z,13.80
2019-01-08T19:22:13.585Z,13.60
2019-01-08T19:24:55.869Z,13.80
2019-01-08T19:27:36.225Z,14.10
2019-01-08T19:30:18.853Z,13.90
2019-01-08T19:32:59.889Z,13.70
2019-01-08T19:35:41.294Z,13.90
2019-01-08T19:38:23.312Z,14.10
2019-01-08T19:41:03.668Z,14.00
2019-01-08T19:43:44.803Z,13.90
2019-01-08T19:46:25.750Z,13.70
2019-01-08T19:49:06.412Z,13.90
2019-01-08T19:51:47.059Z,14.10
2019-01-08T19:54:27.961Z,14.10
2019-01-08T19:57:08.856Z,13.80
2019-01-08T19:59:50.306Z,14.10
2019-01-08T20:02:30.953Z,14.20
2019-01-08T20:05:11.862Z,14.20
2019-01-08T20:07:53.395Z,14.00
2019-01-08T20:10:34.637Z,14.20
2019-01-08T20:13:15.553Z,14.30
2019-01-08T20:15:56.450Z,14.10
2019-01-08T20:18:44.986Z,14.20
2019-01-08T20:21:20.217Z,13.90
2019-01-08T20:24:06.219Z,13.80
2019-01-08T20:26:42.913Z,14.10
2019-01-08T20:29:11.689Z,14.30
2019-01-08T20:31:59.503Z,14.10
2019-01-08T20:34:48.753Z,14.00
2019-01-08T20:37:37.065Z,14.00
2019-01-08T20:40:24.932Z,13.90
2019-01-08T20:43:12.806Z,14.30
2019-01-08T20:46:00.661Z,14.30
2019-01-08T20:51:57.024Z,14.00
2019-01-08T20:54:37.524Z,14.10
2019-01-08T20:57:18.490Z,13.70
2019-01-08T20:59:59.677Z,13.80
2019-01-08T21:02:40.368Z,14.00
2019-01-08T21:05:20.964Z,13.90
2019-01-08T21:08:01.965Z,13.90
2019-01-08T21:10:42.813Z,13.90
2019-01-08T21:13:26.324Z,14.10
2019-01-08T21:16:06.985Z,13.90
2019-01-08T21:18:50.497Z,14.00
2019-01-08T21:21:31.173Z,14.10
2019-01-08T21:24:12.268Z,14.10
2019-01-08T21:26:52.909Z,14.20
2019-01-08T21:29:34.206Z,14.10
2019-01-08T21:32:14.692Z,14.20
2019-01-08T21:34:55.706Z,13.40
2019-01-08T21:37:39.167Z,14.00
2019-01-08T21:40:20.244Z,13.90
2019-01-08T21:43:01.009Z,13.70
2019-01-08T21:45:41.672Z,14.00
2019-01-08T21:48:22.785Z,13.80
2019-01-08T21:51:03.581Z,13.50
2019-01-08T21:53:44.458Z,13.70
2019-01-08T21:56:25.242Z,14.10
2019-01-08T21:59:06.496Z,14.20
2019-01-08T22:01:47.346Z,14.10
2019-01-08T22:04:28.025Z,13.70
2019-01-08T22:07:08.940Z,13.80
2019-01-08T22:09:49.965Z,14.10
2019-01-08T22:12:30.848Z,14.10
2019-01-08T22:15:12.040Z,13.90
2019-01-08T22:17:52.524Z,14.10
2019-01-08T22:20:33.052Z,14.00
2019-01-08T22:23:14.077Z,14.30
2019-01-08T22:25:55.285Z,14.30
2019-01-08T22:28:35.877Z,14.20
2019-01-08T22:31:16.636Z,14.30
2019-01-08T22:33:57.451Z,14.30
2019-01-08T22:36:38.324Z,14.30
2019-01-08T22:39:19.477Z,14.30
2019-01-08T22:41:59.912Z,14.40
2019-01-08T22:44:40.712Z,14.30
2019-01-08T22:47:21.509Z,14.10
2019-01-08T22:50:02.427Z,14.30
2019-01-08T22:52:43.044Z,14.30
2019-01-08T22:55:23.281Z,14.30
2019-01-08T22:58:04.557Z,14.30
2019-01-08T23:01:04.469Z,14.00
2019-01-08T23:03:44.886Z,14.20
2019-01-08T23:06:25.560Z,14.30
2019-01-08T23:09:06.629Z,14.30
2019-01-08T23:11:47.382Z,14.30
2019-01-08T23:14:28.021Z,14.30
2019-01-08T23:17:08.961Z,14.40
2019-01-08T23:19:52.972Z,14.40
2019-01-08T23:22:33.455Z,14.30
2019-01-08T23:25:14.381Z,14.30
2019-01-08T23:27:55.268Z,14.40
2019-01-08T23:30:37.586Z,14.40
2019-01-08T23:33:18.794Z,14.40
2019-01-08T23:35:59.767Z,14.40
2019-01-08T23:38:40.853Z,14.30
2019-01-08T23:41:21.869Z,14.40
2019-01-08T23:44:02.601Z,14.40
2019-01-08T23:46:44.717Z,14.30
2019-01-08T23:49:25.401Z,14.30
2019-01-08T23:52:05.919Z,14.10
2019-01-08T23:54:47.024Z,14.10
2019-01-08T23:57:27.545Z,14.30
